createdAt,value
2023-10-09T00:01:03.001Z,101085.40
2023-10-09T00:03:54.769Z,101089.80
2023-10-09T00:06:38.697Z,101085.80
2023-10-09T00:09:19.875Z,101072.20
2023-10-09T00:11:58.322Z,101070.60
2023-10-09T00:14:35.455Z,101076.00
2023-10-09T00:17:21.916Z,101068.20
2023-10-09T00:20:01.248Z,101058.80
2023-10-09T00:22:39.369Z,101043.00
2023-10-09T00:25:16.210Z,101043.80
2023-10-09T00:27:49.664Z,101036.40
2023-10-09T00:30:23.572Z,101030.80
2023-10-09T00:33:01.238Z,101028.20
2023-10-09T00:35:47.937Z,101027.40
2023-10-09T00:38:25.439Z,101029.40
2023-10-09T00:41:11.334Z,101029.60
2023-10-09T00:43:45.005Z,101028.00
2023-10-09T00:46:25.701Z,101032.40
2023-10-09T00:49:04.293Z,101039.00
2023-10-09T00:51:37.847Z,101040.60
2023-10-09T00:54:16.176Z,101039.40
2023-10-09T00:56:58.881Z,101032.60
2023-10-09T00:59:32.912Z,101033.80
2023-10-09T01:02:06.692Z,101025.40
2023-10-09T01:04:42.608Z,101019.40
2023-10-09T01:07:17.539Z,101011.60
2023-10-09T01:09:52.855Z,101003.00
2023-10-09T01:12:25.723Z,100998.60
2023-10-09T01:15:01.194Z,101004.00
2023-10-09T01:17:38.155Z,101007.00
2023-10-09T01:20:18.309Z,101004.80
2023-10-09T01:22:52.003Z,100996.20
2023-10-09T01:25:25.567Z,100989.60
2023-10-09T01:27:58.403Z,100986.40
2023-10-09T01:30:31.233Z,100977.20
2023-10-09T01:33:14.707Z,100983.40
2023-10-09T01:35:50.844Z,100982.40
2023-10-09T01:38:33.418Z,100973.80
2023-10-09T01:41:09.594Z,100970.20
2023-10-09T01:43:45.985Z,100978.40
2023-10-09T01:46:21.102Z,100975.40
2023-10-09T01:48:55.104Z,100986.00
2023-10-09T01:51:34.628Z,100977.20
2023-10-09T01:54:07.754Z,100968.20
2023-10-09T01:56:41.524Z,100961.80
2023-10-09T01:59:15.427Z,100958.60
2023-10-09T02:01:49.267Z,100954.00
2023-10-09T02:04:23.215Z,100950.40
2023-10-09T02:06:56.160Z,100945.00
2023-10-09T02:09:32.915Z,100941.00
2023-10-09T02:12:06.256Z,100942.00
2023-10-09T02:14:42.748Z,100935.00
2023-10-09T02:17:21.730Z,100922.20
2023-10-09T02:19:54.941Z,100909.00
2023-10-09T02:22:28.328Z,100897.80
2023-10-09T02:25:01.344Z,100893.20
2023-10-09T02:27:48.856Z,100890.00
2023-10-09T02:30:30.078Z,100878.60
2023-10-09T02:33:10.452Z,100882.40
2023-10-09T02:35:44.912Z,100872.00
2023-10-09T02:38:18.562Z,100862.20
2023-10-09T02:41:19.516Z,100858.00
2023-10-09T02:43:56.465Z,100854.80
2023-10-09T02:46:32.438Z,100859.40
2023-10-09T02:49:07.676Z,100848.40
2023-10-09T02:51:43.774Z,100838.80
2023-10-09T02:54:37.305Z,100831.40
2023-10-09T02:57:17.008Z,100831.40
2023-10-09T02:59:52.651Z,100832.80
2023-10-09T03:02:26.275Z,100832.40
2023-10-09T03:05:00.170Z,100844.00
2023-10-09T03:07:32.937Z,100842.60
2023-10-09T03:10:11.018Z,100848.60
2023-10-09T03:12:44.666Z,100841.60
2023-10-09T03:15:17.492Z,100830.40
2023-10-09T03:17:50.518Z,100833.60
2023-10-09T03:20:23.341Z,100841.00
2023-10-09T03:22:57.236Z,100849.40
2023-10-09T03:25:30.098Z,100852.40
2023-10-09T03:28:04.128Z,100836.00
2023-10-09T03:30:38.799Z,100835.40
2023-10-09T03:33:12.942Z,100830.40
2023-10-09T03:35:46.153Z,100830.60
2023-10-09T03:38:19.937Z,100826.80
2023-10-09T03:40:53.301Z,100816.80
2023-10-09T03:43:26.174Z,100808.00
2023-10-09T03:46:00.506Z,100799.80
2023-10-09T03:48:38.336Z,100791.60
2023-10-09T03:51:12.856Z,100782.20
2023-10-09T03:53:45.881Z,100777.80
2023-10-09T03:56:19.899Z,100768.00
2023-10-09T03:58:54.458Z,100756.00
2023-10-09T04:01:29.917Z,100746.40
2023-10-09T04:04:05.016Z,100743.80
2023-10-09T04:06:39.091Z,100734.60
2023-10-09T04:09:28.971Z,100729.40
2023-10-09T04:12:21.993Z,100727.40
2023-10-09T04:15:02.476Z,100716.80
2023-10-09T04:17:37.836Z,100707.40
2023-10-09T04:20:38.745Z,100705.00
2023-10-09T04:23:17.432Z,100703.80
2023-10-09T04:25:52.314Z,100702.00
2023-10-09T04:28:25.081Z,100691.00
2023-10-09T04:31:00.302Z,100691.00
2023-10-09T04:33:44.126Z,100691.40
2023-10-09T04:36:24.264Z,100687.40
2023-10-09T04:39:23.875Z,100677.80
2023-10-09T04:42:16.744Z,100684.60
2023-10-09T04:45:21.168Z,100691.60
2023-10-09T04:48:08.243Z,100699.60
2023-10-09T04:51:04.248Z,100704.60
2023-10-09T04:53:45.931Z,100718.00
2023-10-09T04:56:18.882Z,100731.80
2023-10-09T04:59:04.508Z,100732.80
2023-10-09T05:01:45.275Z,100737.80
2023-10-09T05:04:36.311Z,100732.00
2023-10-09T05:07:23.372Z,100730.40
2023-10-09T05:10:11.171Z,100732.60
2023-10-09T05:12:48.068Z,100732.80
2023-10-09T05:15:28.248Z,100721.60
2023-10-09T05:18:10.739Z,100715.40
2023-10-09T05:21:19.087Z,100715.60
2023-10-09T05:24:12.087Z,100714.60
2023-10-09T05:26:53.204Z,100709.00
2023-10-09T05:29:49.550Z,100708.00
2023-10-09T05:32:29.416Z,100707.00
2023-10-09T05:35:17.067Z,100703.00
2023-10-09T05:38:00.604Z,100701.60
2023-10-09T05:40:33.444Z,100701.00
2023-10-09T05:43:07.306Z,100688.00
2023-10-09T05:46:02.836Z,100680.40
2023-10-09T05:48:55.288Z,100689.00
2023-10-09T05:51:54.106Z,100683.80
2023-10-09T05:54:40.762Z,100678.00
2023-10-09T05:57:31.145Z,100661.00
2023-10-09T06:00:21.573Z,100660.80
2023-10-09T06:03:12.039Z,100654.40
2023-10-09T06:05:43.607Z,100646.20
2023-10-09T06:08:25.935Z,100641.60
2023-10-09T06:11:27.794Z,100645.20
2023-10-09T06:14:14.057Z,100639.60
2023-10-09T06:17:01.199Z,100639.60
2023-10-09T06:19:44.509Z,100639.40
2023-10-09T06:22:35.173Z,100625.40
2023-10-09T06:25:12.993Z,100619.60
2023-10-09T06:27:59.212Z,100610.00
2023-10-09T06:30:36.236Z,100594.80
2023-10-09T06:33:30.680Z,100590.60
2023-10-09T06:36:09.897Z,100587.80
2023-10-09T06:39:14.372Z,100591.00
2023-10-09T06:42:07.604Z,100589.40
2023-10-09T06:44:54.929Z,100586.20
2023-10-09T06:47:27.970Z,100576.60
2023-10-09T06:50:26.724Z,100561.00
2023-10-09T06:53:06.408Z,100547.20
2023-10-09T06:55:51.624Z,100540.20
2023-10-09T06:58:28.155Z,100527.20
2023-10-09T07:01:17.829Z,100533.60
2023-10-09T07:04:01.437Z,100528.60
2023-10-09T07:06:48.219Z,100533.40
2023-10-09T07:09:22.159Z,100543.40
2023-10-09T07:12:00.504Z,100542.00
2023-10-09T07:14:51.235Z,100546.00
2023-10-09T07:17:45.666Z,100538.40
2023-10-09T07:20:37.516Z,100538.00
2023-10-09T07:23:16.411Z,100538.20
2023-10-09T07:26:00.618Z,100529.40
2023-10-09T07:28:49.630Z,100515.60
2023-10-09T07:31:31.114Z,100509.00
2023-10-09T07:34:08.327Z,100511.20
2023-10-09T07:36:42.149Z,100517.60
2023-10-09T07:39:18.831Z,100513.80
2023-10-09T07:42:16.361Z,100512.80
2023-10-09T07:44:54.352Z,100521.60
2023-10-09T07:47:47.478Z,100520.60
2023-10-09T07:50:22.729Z,100514.40
2023-10-09T07:53:15.606Z,100509.40
2023-10-09T07:55:55.611Z,100513.00
2023-10-09T07:58:28.998Z,100505.00
2023-10-09T08:01:17.522Z,100509.80
2023-10-09T08:04:03.278Z,100510.40
2023-10-09T08:07:01.400Z,100504.20
2023-10-09T08:09:48.918Z,100502.00
2023-10-09T08:12:39.421Z,100501.40
2023-10-09T08:15:30.704Z,100508.00
2023-10-09T08:18:11.529Z,100499.60
2023-10-09T08:21:13.707Z,100491.40
2023-10-09T08:23:50.540Z,100477.40
2023-10-09T08:26:48.583Z,100466.80
2023-10-09T08:29:21.483Z,100462.60
2023-10-09T08:31:58.361Z,100475.60
2023-10-09T08:35:01.176Z,100480.00
2023-10-09T08:37:31.374Z,100477.00
2023-10-09T08:40:08.539Z,100479.20
2023-10-09T08:42:41.315Z,100471.60
2023-10-09T08:45:17.796Z,100473.60
2023-10-09T08:47:53.906Z,100462.60
2023-10-09T08:50:29.935Z,100463.80
2023-10-09T08:53:04.443Z,100462.20
2023-10-09T08:55:38.784Z,100471.40
2023-10-09T08:58:17.430Z,100468.00
2023-10-09T09:00:50.535Z,100458.40
2023-10-09T09:03:25.387Z,100459.00
2023-10-09T09:06:06.049Z,100468.80
2023-10-09T09:08:38.156Z,100469.80
2023-10-09T09:11:18.764Z,100477.80
2023-10-09T09:14:08.754Z,100479.80
2023-10-09T09:16:49.707Z,100475.40
2023-10-09T09:19:33.417Z,100484.20
2023-10-09T09:22:13.897Z,100480.20
2023-10-09T09:25:04.523Z,100481.60
2023-10-09T09:27:56.067Z,100484.00
2023-10-09T09:30:34.640Z,100473.20
2023-10-09T09:33:31.860Z,100466.20
2023-10-09T09:36:06.762Z,100468.60
2023-10-09T09:38:49.959Z,100475.80
2023-10-09T09:41:26.534Z,100480.40
2023-10-09T09:44:01.883Z,100466.20
2023-10-09T09:46:37.368Z,100461.00
2023-10-09T09:49:18.267Z,100453.40
2023-10-09T09:51:51.410Z,100452.00
2023-10-09T09:54:27.913Z,100467.60
2023-10-09T09:57:02.321Z,100465.80
2023-10-09T09:59:38.086Z,100464.00
2023-10-09T10:02:13.111Z,100458.00
2023-10-09T10:04:50.971Z,100450.60
2023-10-09T10:07:26.632Z,100439.60
2023-10-09T10:09:59.612Z,100426.80
2023-10-09T10:13:02.898Z,100421.20
2023-10-09T10:16:14.641Z,100425.20
2023-10-09T10:19:15.955Z,100414.60
2023-10-09T10:21:51.558Z,100417.00
2023-10-09T10:24:54.177Z,100417.40
2023-10-09T10:27:34.506Z,100418.80
2023-10-09T10:30:37.960Z,100422.60
2023-10-09T10:33:17.665Z,100428.00
2023-10-09T10:35:54.226Z,100429.00
2023-10-09T10:38:38.001Z,100429.20
2023-10-09T10:41:19.487Z,100429.20
2023-10-09T10:44:02.638Z,100427.80
2023-10-09T10:46:43.350Z,100432.40
2023-10-09T10:49:22.051Z,100431.60
2023-10-09T10:52:03.089Z,100438.60
2023-10-09T10:54:48.555Z,100434.00
2023-10-09T10:57:30.809Z,100430.80
2023-10-09T11:00:34.699Z,100424.00
2023-10-09T11:03:20.664Z,100413.60
2023-10-09T11:05:54.010Z,100417.40
2023-10-09T11:08:33.494Z,100425.00
2023-10-09T11:11:20.888Z,100419.60
2023-10-09T11:13:57.692Z,100412.80
2023-10-09T11:16:44.364Z,100409.80
2023-10-09T11:19:34.333Z,100417.40
2023-10-09T11:22:29.763Z,100415.20
2023-10-09T11:25:13.809Z,100414.80
2023-10-09T11:27:52.594Z,100417.60
2023-10-09T11:30:35.803Z,100416.60
2023-10-09T11:33:16.874Z,100402.20
2023-10-09T11:36:00.352Z,100392.40
2023-10-09T11:38:40.736Z,100396.80
2023-10-09T11:41:24.536Z,100388.20
2023-10-09T11:43:59.253Z,100384.80
2023-10-09T11:46:49.918Z,100389.80
2023-10-09T11:49:45.621Z,100379.40
2023-10-09T11:52:39.032Z,100392.00
2023-10-09T11:55:16.312Z,100390.80
2023-10-09T11:57:51.564Z,100392.60
2023-10-09T12:00:30.640Z,100392.00
2023-10-09T12:03:07.218Z,100386.20
2023-10-09T12:05:43.979Z,100387.20
2023-10-09T12:08:17.865Z,100385.80
2023-10-09T12:10:50.665Z,100388.00
2023-10-09T12:13:24.368Z,100391.20
2023-10-09T12:15:59.190Z,100393.00
2023-10-09T12:18:36.050Z,100385.00
2023-10-09T12:21:09.278Z,100387.80
2023-10-09T12:23:44.880Z,100385.40
2023-10-09T12:26:18.019Z,100390.80
2023-10-09T12:28:51.460Z,100385.60
2023-10-09T12:31:41.361Z,100385.40
2023-10-09T12:34:17.371Z,100385.20
2023-10-09T12:36:51.776Z,100381.40
2023-10-09T12:39:24.749Z,100368.80
2023-10-09T12:42:00.063Z,100367.00
2023-10-09T12:44:32.923Z,100365.80
2023-10-09T12:47:06.210Z,100365.40
2023-10-09T12:49:42.380Z,100361.20
2023-10-09T12:52:18.144Z,100356.80
2023-10-09T12:54:51.053Z,100351.80
2023-10-09T12:57:25.132Z,100352.60
2023-10-09T12:59:58.375Z,100347.20
2023-10-09T13:02:31.333Z,100343.20
2023-10-09T13:05:07.174Z,100347.00
2023-10-09T13:07:40.024Z,100354.80
2023-10-09T13:10:14.807Z,100355.80
2023-10-09T13:12:47.868Z,100357.20
2023-10-09T13:15:22.285Z,100356.40
2023-10-09T13:17:55.094Z,100371.60
2023-10-09T13:20:29.110Z,100362.20
2023-10-09T13:23:02.842Z,100368.60
2023-10-09T13:25:41.166Z,100362.40
2023-10-09T13:28:21.964Z,100353.60
2023-10-09T13:30:56.351Z,100345.00
2023-10-09T13:33:38.083Z,100340.20
2023-10-09T13:36:18.769Z,100341.80
2023-10-09T13:38:51.722Z,100337.40
2023-10-09T13:41:27.207Z,100337.00
2023-10-09T13:44:00.320Z,100331.60
2023-10-09T13:46:33.114Z,100329.00
2023-10-09T13:49:10.366Z,100329.80
2023-10-09T13:51:45.981Z,100327.80
2023-10-09T13:54:22.395Z,100335.80
2023-10-09T13:56:55.474Z,100333.60
2023-10-09T13:59:28.426Z,100326.80
2023-10-09T14:02:04.105Z,100319.20
2023-10-09T14:04:36.969Z,100328.60
2023-10-09T14:07:09.813Z,100329.00
2023-10-09T14:09:46.767Z,100339.40
2023-10-09T14:12:20.707Z,100337.20
2023-10-09T14:14:55.259Z,100340.00
2023-10-09T14:17:30.002Z,100348.40
2023-10-09T14:20:23.294Z,100360.20
2023-10-09T14:22:56.056Z,100369.40
2023-10-09T14:25:31.268Z,100375.20
2023-10-09T14:28:08.670Z,100372.00
2023-10-09T14:30:46.015Z,100359.60
2023-10-09T14:33:24.110Z,100363.80
2023-10-09T14:35:59.457Z,100368.80
2023-10-09T14:38:34.300Z,100370.00
2023-10-09T14:41:08.819Z,100373.80
2023-10-09T14:43:42.688Z,100379.80
2023-10-09T14:46:24.625Z,100386.60
2023-10-09T14:48:58.514Z,100392.40
2023-10-09T14:51:31.979Z,100390.80
2023-10-09T14:54:05.000Z,100390.80
2023-10-09T14:56:38.980Z,100397.80
2023-10-09T14:59:12.572Z,100404.20
2023-10-09T15:01:45.784Z,100406.20
2023-10-09T15:04:18.693Z,100401.20
2023-10-09T15:06:52.562Z,100403.00
2023-10-09T15:09:29.611Z,100408.20
2023-10-09T15:12:02.725Z,100404.60
2023-10-09T15:14:35.777Z,100403.00
2023-10-09T15:17:09.116Z,100401.00
2023-10-09T15:19:41.921Z,100402.60
2023-10-09T15:22:15.590Z,100403.80
2023-10-09T15:24:48.352Z,100400.20
2023-10-09T15:27:21.214Z,100402.20
2023-10-09T15:29:54.119Z,100410.20
2023-10-09T15:32:26.967Z,100417.20
2023-10-09T15:35:03.907Z,100416.40
2023-10-09T15:37:36.795Z,100413.40
2023-10-09T15:40:15.560Z,100416.80
2023-10-09T15:42:51.247Z,100425.40
2023-10-09T15:45:25.744Z,100422.00
2023-10-09T15:48:00.891Z,100415.00
2023-10-09T15:50:35.691Z,100417.80
2023-10-09T15:53:09.359Z,100417.60
2023-10-09T15:55:42.212Z,100422.00
2023-10-09T15:58:16.422Z,100425.40
2023-10-09T16:00:50.356Z,100423.20
2023-10-09T16:03:25.690Z,100419.80
2023-10-09T16:06:01.402Z,100419.60
2023-10-09T16:08:34.424Z,100418.40
2023-10-09T16:11:08.807Z,100421.20
2023-10-09T16:13:41.726Z,100423.00
2023-10-09T16:16:15.718Z,100425.00
2023-10-09T16:18:48.956Z,100432.40
2023-10-09T16:21:21.735Z,100430.20
2023-10-09T16:23:55.339Z,100438.80
2023-10-09T16:26:29.562Z,100448.80
2023-10-09T16:29:02.342Z,100462.20
2023-10-09T16:31:39.659Z,100476.80
2023-10-09T16:34:15.934Z,100467.60
2023-10-09T16:36:48.882Z,100464.60
2023-10-09T16:39:24.104Z,100470.40
2023-10-09T16:41:58.746Z,100473.80
2023-10-09T16:44:31.886Z,100473.60
2023-10-09T16:47:05.024Z,100464.20
2023-10-09T16:49:39.966Z,100473.80
2023-10-09T16:52:13.458Z,100476.60
2023-10-09T16:54:46.390Z,100473.20
2023-10-09T16:57:19.560Z,100476.80
2023-10-09T16:59:53.369Z,100480.20
2023-10-09T17:02:28.982Z,100476.20
2023-10-09T17:05:04.579Z,100480.20
2023-10-09T17:07:40.627Z,100476.20
2023-10-09T17:10:17.224Z,100478.80
2023-10-09T17:12:53.391Z,100475.00
2023-10-09T17:15:34.282Z,100481.20
2023-10-09T17:18:08.295Z,100484.60
2023-10-09T17:20:50.110Z,100488.20
2023-10-09T17:23:23.077Z,100490.00
2023-10-09T17:25:59.674Z,100490.00
2023-10-09T17:28:32.695Z,100490.40
2023-10-09T17:31:09.190Z,100486.60
2023-10-09T17:33:44.725Z,100486.60
2023-10-09T17:36:18.191Z,100483.20
2023-10-09T17:38:52.148Z,100483.80
2023-10-09T17:41:25.433Z,100485.80
2023-10-09T17:43:59.442Z,100495.00
2023-10-09T17:46:32.507Z,100489.60
2023-10-09T17:49:06.719Z,100493.40
2023-10-09T17:51:39.481Z,100489.00
2023-10-09T17:54:14.786Z,100485.60
2023-10-09T17:56:48.696Z,100494.60
2023-10-09T17:59:21.528Z,100499.20
2023-10-09T18:01:54.364Z,100506.40
2023-10-09T18:04:27.441Z,100505.80
2023-10-09T18:07:00.083Z,100503.80
2023-10-09T18:09:35.104Z,100508.80
2023-10-09T18:12:08.533Z,100515.60
2023-10-09T18:14:41.393Z,100518.60
2023-10-09T18:17:21.105Z,100517.00
2023-10-09T18:19:54.424Z,100509.20
2023-10-09T18:22:30.963Z,100504.40
2023-10-09T18:25:03.760Z,100493.60
2023-10-09T18:27:36.719Z,100491.60
2023-10-09T18:30:13.241Z,100495.40
2023-10-09T18:32:48.807Z,100495.40
2023-10-09T18:35:21.698Z,100498.80
2023-10-09T18:38:00.168Z,100506.80
2023-10-09T18:40:33.328Z,100499.00
2023-10-09T18:43:09.663Z,100506.60
2023-10-09T18:45:45.349Z,100518.60
2023-10-09T18:48:23.058Z,100514.00
2023-10-09T18:50:56.072Z,100512.60
2023-10-09T18:53:31.018Z,100514.80
2023-10-09T18:56:07.134Z,100506.20
2023-10-09T18:58:39.949Z,100515.40
2023-10-09T19:01:15.202Z,100509.00
2023-10-09T19:03:50.744Z,100520.20
2023-10-09T19:06:25.391Z,100515.20
2023-10-09T19:08:59.794Z,100507.80
2023-10-09T19:11:33.430Z,100509.60
2023-10-09T19:14:09.715Z,100516.00
2023-10-09T19:16:42.895Z,100513.00
2023-10-09T19:19:16.239Z,100514.20
2023-10-09T19:21:49.251Z,100507.00
2023-10-09T19:24:21.987Z,100494.00
2023-10-09T19:26:54.713Z,100491.40
2023-10-09T19:29:28.015Z,100494.60
2023-10-09T19:32:01.747Z,100507.60
2023-10-09T19:34:35.972Z,100507.00
2023-10-09T19:37:09.356Z,100502.20
2023-10-09T19:39:42.896Z,100499.20
2023-10-09T19:42:16.016Z,100501.60
2023-10-09T19:44:49.142Z,100503.00
2023-10-09T19:47:24.533Z,100521.00
2023-10-09T19:49:57.746Z,100523.20
2023-10-09T19:52:31.656Z,100530.40
2023-10-09T19:55:05.249Z,100532.00
2023-10-09T19:57:40.037Z,100529.00
2023-10-09T20:00:23.141Z,100520.00
2023-10-09T20:02:59.174Z,100525.20
2023-10-09T20:05:32.191Z,100520.60
2023-10-09T20:08:05.439Z,100525.40
2023-10-09T20:10:39.336Z,100531.60
2023-10-09T20:13:13.030Z,100547.40
2023-10-09T20:15:47.114Z,100541.00
2023-10-09T20:18:21.007Z,100540.60
2023-10-09T20:20:54.131Z,100538.00
2023-10-09T20:23:27.504Z,100543.40
2023-10-09T20:26:08.201Z,100544.00
2023-10-09T20:28:41.291Z,100552.40
2023-10-09T20:31:14.241Z,100547.40
2023-10-09T20:33:47.881Z,100548.40
2023-10-09T20:36:20.846Z,100552.80
2023-10-09T20:38:54.473Z,100560.80
2023-10-09T20:41:27.402Z,100555.60
2023-10-09T20:44:00.704Z,100550.40
2023-10-09T20:46:33.474Z,100546.40
2023-10-09T20:49:06.642Z,100542.80
2023-10-09T20:51:54.339Z,100543.20
2023-10-09T20:54:29.782Z,100553.60
2023-10-09T20:57:03.216Z,100556.80
2023-10-09T20:59:36.042Z,100561.20
2023-10-09T21:02:08.938Z,100566.20
2023-10-09T21:04:41.809Z,100566.00
2023-10-09T21:07:14.519Z,100564.60
2023-10-09T21:09:49.182Z,100553.20
2023-10-09T21:12:21.961Z,100556.40
2023-10-09T21:14:54.881Z,100555.80
2023-10-09T21:17:27.890Z,100554.80
2023-10-09T21:20:00.882Z,100549.80
2023-10-09T21:22:33.771Z,100539.60
2023-10-09T21:25:07.695Z,100543.40
2023-10-09T21:27:42.298Z,100545.20
2023-10-09T21:30:17.001Z,100551.40
2023-10-09T21:32:50.716Z,100551.20
2023-10-09T21:35:28.892Z,100546.40
2023-10-09T21:38:02.511Z,100546.60
2023-10-09T21:40:37.870Z,100541.20
2023-10-09T21:43:10.910Z,100542.00
2023-10-09T21:45:46.226Z,100531.80
2023-10-09T21:48:19.383Z,100543.60
2023-10-09T21:50:52.100Z,100532.00
2023-10-09T21:53:24.890Z,100534.00
2023-10-09T21:56:05.709Z,100544.40
2023-10-09T21:58:38.692Z,100553.40
2023-10-09T22:01:14.248Z,100554.60
2023-10-09T22:03:49.492Z,100555.20
2023-10-09T22:06:25.404Z,100556.40
2023-10-09T22:08:58.717Z,100558.20
2023-10-09T22:11:31.511Z,100557.00
2023-10-09T22:14:04.531Z,100562.20
2023-10-09T22:16:39.696Z,100560.60
2023-10-09T22:19:14.989Z,100559.80
2023-10-09T22:21:49.198Z,100561.00
2023-10-09T22:24:22.197Z,100559.80
2023-10-09T22:26:55.145Z,100559.00
2023-10-09T22:29:29.054Z,100551.80
2023-10-09T22:32:02.011Z,100557.40
2023-10-09T22:34:38.028Z,100559.80
2023-10-09T22:37:15.779Z,100559.40
2023-10-09T22:39:49.311Z,100556.80
2023-10-09T22:42:24.199Z,100561.80
2023-10-09T22:44:57.712Z,100554.60
2023-10-09T22:47:34.340Z,100556.80
2023-10-09T22:50:18.942Z,100563.20
2023-10-09T22:52:54.341Z,100551.40
2023-10-09T22:55:32.843Z,100547.60
2023-10-09T22:58:11.276Z,100548.20
2023-10-09T23:00:50.379Z,100552.00
2023-10-09T23:03:29.358Z,100551.60
2023-10-09T23:06:10.582Z,100548.80
2023-10-09T23:08:44.341Z,100553.20
2023-10-09T23:11:26.781Z,100542.40
2023-10-09T23:14:16.510Z,100541.00
2023-10-09T23:16:55.789Z,100540.60
2023-10-09T23:19:41.787Z,100542.00
2023-10-09T23:22:15.660Z,100538.60
2023-10-09T23:24:54.893Z,100545.80
2023-10-09T23:27:48.915Z,100545.40
2023-10-09T23:30:28.705Z,100535.80
2023-10-09T23:33:12.837Z,100542.80
2023-10-09T23:35:52.414Z,100548.20
2023-10-09T23:38:35.263Z,100551.60
2023-10-09T23:41:11.090Z,100556.00
2023-10-09T23:43:47.677Z,100562.40
2023-10-09T23:46:25.106Z,100566.40
2023-10-09T23:48:59.159Z,100569.20
2023-10-09T23:51:32.044Z,100559.00
2023-10-09T23:54:11.468Z,100557.60
2023-10-09T23:56:53.850Z,100556.20
2023-10-09T23:59:39.558Z,100551.40
